Decoded Metar for KSDB (SANDBERG in CA, USA) (IATA:SDB) | Meteo·Mobile Aviation Weather
aviador You're here:

KSDB Decoded Metar

SANDBERG in CA, USA
Report Time2018-10-15 18:53:00
UTC Time2018-10-15 19:06:55
Flight Rules vfr VFR
Wind080° at 15 Gusting to 25 kt
W.Rank080° ranks 10
Current wind is above 080° avg. (14.4)
Visibility9999 m
Phenomena:N/A
Clouds:N/A
Expected CloudBase > 12,800 ft AGL from Temp-Dew spread
CeilingNone
Temp14°C (ISA +8)
Dew Point-18°C (9% RH)
AAT5.1°C
QNH1024 hPa
Density Alt5,108 ft
Elevation4,518 ft
Report Wrong Elevation
Raw Report
KSDB 151853Z AUTO 08015G25KT 10SM CLR 14/M18 A3025 RMK AO2 SLP210
T01441178 $=

Extra information for KSDB:More info

Metar Taf Metar & Taf Last 4 Metars F.Rules Stats Wind Profile Meteogram Temp Stats Airport Information Weather charts Add Link Nearby VenuesMetar ALERT Operation Metar Decoded Social comments

AIRNAV info for KSDB